createdAt,value
2018-09-12T00:00:51.876Z,48.14
2018-09-12T00:03:20.159Z,48.20
2018-09-12T00:05:48.426Z,47.39
2018-09-12T00:08:16.696Z,47.39
2018-09-12T00:10:44.976Z,48.24
2018-09-12T00:13:13.300Z,47.83
2018-09-12T00:15:41.710Z,48.08
2018-09-12T00:18:09.983Z,48.20
2018-09-12T00:20:39.103Z,47.92
2018-09-12T00:23:07.378Z,48.25
2018-09-12T00:25:35.674Z,48.25
2018-09-12T00:28:03.959Z,47.44
2018-09-12T00:30:32.338Z,47.70
2018-09-12T00:33:00.623Z,47.49
2018-09-12T00:35:29.014Z,48.24
2018-09-12T00:37:57.282Z,47.46
2018-09-12T00:40:25.534Z,47.52
2018-09-12T00:42:53.822Z,48.26
2018-09-12T00:45:22.194Z,47.90
2018-09-12T00:47:50.475Z,48.00
2018-09-12T00:50:18.728Z,48.18
2018-09-12T00:52:47.003Z,47.44
2018-09-12T00:55:15.298Z,47.48
2018-09-12T00:57:43.631Z,47.92
2018-09-12T01:00:12.250Z,47.51
2018-09-12T01:02:51.239Z,48.10
2018-09-12T01:05:19.526Z,47.48
2018-09-12T01:07:47.947Z,47.54
2018-09-12T01:10:16.315Z,48.31
2018-09-12T01:12:44.659Z,48.38
2018-09-12T01:15:13.545Z,47.50
2018-09-12T01:17:41.834Z,47.73
2018-09-12T01:20:10.111Z,47.48
2018-09-12T01:22:38.400Z,47.89
2018-09-12T01:25:06.667Z,47.81
2018-09-12T01:27:34.979Z,47.71
2018-09-12T01:30:03.304Z,48.37
2018-09-12T01:32:31.583Z,47.92
2018-09-12T01:34:59.854Z,48.12
2018-09-12T01:37:28.181Z,47.67
2018-09-12T01:39:56.573Z,47.95
2018-09-12T01:42:24.863Z,48.06
2018-09-12T01:44:53.179Z,47.66
2018-09-12T01:47:21.459Z,47.67
2018-09-12T01:49:49.771Z,47.70
2018-09-12T01:52:18.031Z,48.36
2018-09-12T01:54:46.346Z,48.24
2018-09-12T01:57:14.598Z,47.71
2018-09-12T01:59:42.870Z,47.70
2018-09-12T02:02:11.243Z,48.17
2018-09-12T02:04:39.575Z,48.19
2018-09-12T02:07:07.849Z,47.74
2018-09-12T02:09:36.179Z,47.93
2018-09-12T02:12:04.454Z,48.60
2018-09-12T02:14:32.766Z,47.79
2018-09-12T02:17:01.071Z,47.73
2018-09-12T02:19:29.370Z,48.52
2018-09-12T02:21:57.666Z,48.04
2018-09-12T02:24:25.981Z,47.75
2018-09-12T02:26:54.366Z,47.77
2018-09-12T02:29:22.678Z,48.62
2018-09-12T02:31:50.962Z,48.36
2018-09-12T02:34:19.247Z,48.31
2018-09-12T02:36:47.515Z,47.77
2018-09-12T02:39:15.810Z,48.50
2018-09-12T02:41:44.206Z,48.13
2018-09-12T02:44:12.534Z,48.50
2018-09-12T02:46:40.798Z,48.28
2018-09-12T02:49:09.091Z,47.92
2018-09-12T02:51:37.383Z,47.90
2018-09-12T02:54:05.907Z,47.93
2018-09-12T02:56:34.163Z,47.81
2018-09-12T02:59:02.478Z,47.83
2018-09-12T03:01:30.747Z,48.56
2018-09-12T03:03:59.145Z,47.81
2018-09-12T03:06:27.411Z,48.54
2018-09-12T03:08:55.751Z,48.18
2018-09-12T03:11:24.088Z,48.46
2018-09-12T03:13:52.382Z,48.53
2018-09-12T03:16:20.643Z,47.29
2018-09-12T03:18:49.250Z,48.49
2018-09-12T03:21:17.531Z,48.31
2018-09-12T03:23:45.811Z,47.77
2018-09-12T03:26:14.084Z,48.50
2018-09-12T03:28:42.363Z,47.65
2018-09-12T03:31:10.710Z,48.06
2018-09-12T03:33:38.990Z,47.66
2018-09-12T03:36:07.255Z,47.40
2018-09-12T03:38:35.690Z,47.91
2018-09-12T03:41:04.011Z,48.41
2018-09-12T03:43:32.306Z,47.58
2018-09-12T03:46:00.726Z,47.72
2018-09-12T03:48:28.986Z,47.87
2018-09-12T03:50:57.359Z,47.61
2018-09-12T03:53:26.650Z,48.38
2018-09-12T03:55:54.938Z,48.37
2018-09-12T03:58:23.195Z,48.35
2018-09-12T04:00:51.501Z,47.33
2018-09-12T04:03:19.779Z,48.00
2018-09-12T04:05:48.103Z,47.22
2018-09-12T04:08:16.406Z,48.00
2018-09-12T04:10:44.747Z,47.88
2018-09-12T04:13:13.040Z,48.20
2018-09-12T04:15:41.322Z,48.32
2018-09-12T04:18:09.640Z,47.46
2018-09-12T04:20:37.942Z,47.51
2018-09-12T04:23:06.211Z,47.24
2018-09-12T04:25:34.486Z,47.95
2018-09-12T04:28:02.850Z,47.77
2018-09-12T04:30:31.149Z,48.58
2018-09-12T04:32:59.699Z,49.02
2018-09-12T04:35:28.014Z,48.34
2018-09-12T04:37:56.318Z,49.19
2018-09-12T04:40:24.627Z,48.55
2018-09-12T04:42:52.956Z,49.23
2018-09-12T04:45:21.214Z,49.35
2018-09-12T04:47:49.518Z,48.73
2018-09-12T04:50:17.853Z,48.97
2018-09-12T04:52:46.134Z,49.28
2018-09-12T04:55:14.494Z,49.73
2018-09-12T04:57:42.778Z,49.81
2018-09-12T05:00:11.145Z,49.70
2018-09-12T05:02:39.442Z,49.48
2018-09-12T05:05:07.726Z,48.27
2018-09-12T05:07:35.994Z,47.41
2018-09-12T05:10:04.349Z,46.77
2018-09-12T05:12:33.214Z,46.42
2018-09-12T05:15:01.518Z,46.63
2018-09-12T05:17:29.863Z,47.26
2018-09-12T05:19:58.142Z,47.63
2018-09-12T05:22:26.393Z,47.18
2018-09-12T05:24:54.702Z,47.42
2018-09-12T05:27:23.015Z,47.85
2018-09-12T05:29:51.328Z,47.38
2018-09-12T05:32:19.630Z,47.96
2018-09-12T05:34:47.943Z,46.78
2018-09-12T05:37:16.232Z,46.97
2018-09-12T05:39:44.547Z,47.43
2018-09-12T05:42:12.859Z,47.35
2018-09-12T05:44:41.206Z,47.43
2018-09-12T05:47:09.502Z,46.75
2018-09-12T05:49:37.860Z,46.94
2018-09-12T05:52:06.603Z,46.87
2018-09-12T05:54:34.915Z,47.34
2018-09-12T05:57:03.232Z,46.91
2018-09-12T05:59:31.507Z,47.26
2018-09-12T06:01:59.887Z,46.97
2018-09-12T06:04:28.207Z,47.66
2018-09-12T06:06:56.609Z,47.38
2018-09-12T06:09:24.919Z,47.49
2018-09-12T06:11:53.299Z,47.10
2018-09-12T06:14:21.671Z,47.45
2018-09-12T06:16:49.999Z,47.32
2018-09-12T06:19:18.310Z,47.12
2018-09-12T06:21:46.686Z,47.42
2018-09-12T06:24:15.043Z,47.99
2018-09-12T06:26:43.325Z,47.83
2018-09-12T06:29:11.599Z,48.06
2018-09-12T06:31:39.922Z,48.11
2018-09-12T06:34:08.307Z,48.23
2018-09-12T06:36:36.627Z,47.78
2018-09-12T06:39:07.919Z,48.21
2018-09-12T06:41:36.306Z,48.40
2018-09-12T06:44:04.727Z,48.17
2018-09-12T06:46:33.063Z,48.61
2018-09-12T06:49:01.427Z,48.53
2018-09-12T06:51:29.843Z,48.32
2018-09-12T06:53:58.124Z,47.79
2018-09-12T06:56:26.502Z,48.64
2018-09-12T06:58:54.810Z,47.95
2018-09-12T07:01:23.106Z,47.77
2018-09-12T07:03:51.435Z,48.27
2018-09-12T07:06:19.833Z,48.49
2018-09-12T07:08:48.101Z,47.80
2018-09-12T07:11:16.397Z,48.67
2018-09-12T07:13:44.657Z,48.54
2018-09-12T07:16:13.666Z,48.68
2018-09-12T07:18:41.962Z,48.68
2018-09-12T07:21:10.258Z,48.71
2018-09-12T07:23:38.526Z,48.57
2018-09-12T07:26:07.007Z,48.09
2018-09-12T07:28:35.271Z,47.99
2018-09-12T07:31:03.550Z,48.70
2018-09-12T07:33:31.823Z,48.10
2018-09-12T07:36:00.123Z,48.68
2018-09-12T07:38:28.410Z,48.81
2018-09-12T07:40:56.719Z,48.67
2018-09-12T07:43:24.993Z,48.37
2018-09-12T07:45:53.279Z,48.37
2018-09-12T07:48:21.596Z,48.36
2018-09-12T07:50:50.534Z,48.74
2018-09-12T07:53:19.467Z,48.10
2018-09-12T07:55:47.802Z,47.96
2018-09-12T07:58:16.606Z,48.68
2018-09-12T08:00:44.868Z,47.92
2018-09-12T08:03:13.171Z,47.84
2018-09-12T08:05:41.459Z,48.68
2018-09-12T08:08:09.763Z,48.70
2018-09-12T08:10:38.056Z,48.72
2018-09-12T08:13:06.455Z,47.83
2018-09-12T08:15:34.766Z,47.91
2018-09-12T08:18:03.090Z,47.75
2018-09-12T08:20:31.355Z,48.61
2018-09-12T08:22:59.705Z,48.66
2018-09-12T08:25:27.958Z,48.30
2018-09-12T08:27:56.234Z,48.50
2018-09-12T08:30:24.523Z,48.59
2018-09-12T08:32:52.894Z,48.25
2018-09-12T08:35:21.180Z,47.85
2018-09-12T08:37:49.562Z,47.89
2018-09-12T08:40:17.911Z,48.29
2018-09-12T08:42:46.266Z,47.93
2018-09-12T08:45:14.562Z,47.76
2018-09-12T08:47:42.921Z,47.80
2018-09-12T08:50:11.163Z,48.45
2018-09-12T08:52:39.646Z,47.75
2018-09-12T08:55:08.056Z,47.68
2018-09-12T08:57:36.382Z,48.12
2018-09-12T09:00:04.995Z,47.93
2018-09-12T09:02:33.391Z,47.91
2018-09-12T09:05:01.727Z,48.22
2018-09-12T09:07:29.989Z,47.72
2018-09-12T09:09:58.370Z,47.77
2018-09-12T09:12:26.675Z,48.45
2018-09-12T09:14:54.969Z,48.48
2018-09-12T09:17:23.300Z,47.89
2018-09-12T09:19:51.695Z,47.71
2018-09-12T09:22:20.064Z,47.81
2018-09-12T09:24:48.366Z,48.51
2018-09-12T09:27:16.654Z,48.14
2018-09-12T09:29:44.939Z,47.96
2018-09-12T09:32:13.259Z,48.70
2018-09-12T09:34:41.556Z,47.93
2018-09-12T09:37:09.955Z,48.03
2018-09-12T09:39:38.299Z,48.13
2018-09-12T09:42:06.640Z,48.20
2018-09-12T09:44:35.987Z,47.96
2018-09-12T09:47:04.259Z,49.00
2018-09-12T09:49:32.674Z,48.17
2018-09-12T09:52:00.961Z,48.92
2018-09-12T09:54:29.317Z,48.15
2018-09-12T09:56:57.587Z,49.18
2018-09-12T09:59:25.958Z,48.87
2018-09-12T10:01:59.935Z,48.50
2018-09-12T10:04:33.434Z,48.46
2018-09-12T10:07:07.059Z,48.83
2018-09-12T10:09:35.348Z,48.86
2018-09-12T10:12:04.230Z,48.50
2018-09-12T10:14:32.699Z,48.77
2018-09-12T10:17:01.035Z,48.05
2018-09-12T10:19:29.353Z,48.07
2018-09-12T10:21:57.646Z,48.64
2018-09-12T10:24:26.344Z,48.37
2018-09-12T10:26:54.661Z,48.31
2018-09-12T10:29:22.955Z,48.13
2018-09-12T10:31:51.242Z,48.74
2018-09-12T10:34:19.618Z,47.87
2018-09-12T10:36:47.888Z,47.81
2018-09-12T10:39:16.223Z,48.41
2018-09-12T10:41:44.650Z,47.77
2018-09-12T10:44:12.983Z,47.67
2018-09-12T10:46:41.258Z,47.79
2018-09-12T10:49:09.587Z,48.44
2018-09-12T10:51:37.915Z,48.39
2018-09-12T10:54:07.122Z,48.11
2018-09-12T10:56:35.414Z,48.44
2018-09-12T10:59:03.772Z,47.56
2018-09-12T11:01:32.063Z,48.01
2018-09-12T11:04:00.374Z,48.28
2018-09-12T11:06:28.690Z,47.46
2018-09-12T11:08:56.999Z,47.99
2018-09-12T11:11:25.303Z,47.87
2018-09-12T11:13:53.711Z,48.32
2018-09-12T11:16:22.063Z,47.97
2018-09-12T11:18:50.490Z,48.33
2018-09-12T11:21:18.786Z,47.41
2018-09-12T11:23:47.116Z,48.29
2018-09-12T11:26:15.395Z,47.70
2018-09-12T11:28:43.747Z,48.06
2018-09-12T11:31:12.044Z,48.14
2018-09-12T11:33:40.369Z,48.36
2018-09-12T11:36:08.967Z,48.12
2018-09-12T11:38:37.294Z,47.98
2018-09-12T11:41:05.634Z,48.14
2018-09-12T11:43:33.966Z,47.78
2018-09-12T11:46:03.247Z,47.39
2018-09-12T11:48:31.978Z,48.24
2018-09-12T11:51:00.246Z,48.13
2018-09-12T11:53:28.526Z,48.14
2018-09-12T11:55:56.814Z,47.41
2018-09-12T11:58:25.091Z,47.09
2018-09-12T12:00:53.396Z,48.09
2018-09-12T12:03:21.695Z,47.21
2018-09-12T12:05:50.003Z,47.28
2018-09-12T12:08:18.291Z,48.11
2018-09-12T12:10:46.634Z,47.33
2018-09-12T12:13:14.895Z,47.15
2018-09-12T12:15:43.166Z,48.04
2018-09-12T12:18:11.554Z,47.01
2018-09-12T12:20:39.847Z,47.09
2018-09-12T12:23:08.138Z,47.29
2018-09-12T12:25:36.738Z,47.75
2018-09-12T12:28:05.131Z,47.97
2018-09-12T12:30:33.408Z,47.90
2018-09-12T12:33:01.788Z,47.06
2018-09-12T12:35:30.322Z,48.19
2018-09-12T12:37:58.579Z,47.35
2018-09-12T12:40:26.954Z,47.52
2018-09-12T12:42:55.303Z,47.37
2018-09-12T12:45:23.682Z,48.30
2018-09-12T12:47:51.990Z,47.57
2018-09-12T12:50:20.299Z,48.10
2018-09-12T12:52:48.618Z,48.17
2018-09-12T12:55:16.998Z,47.75
2018-09-12T12:57:45.258Z,47.97
2018-09-12T13:00:13.542Z,47.18
2018-09-12T13:02:41.910Z,47.54
2018-09-12T13:05:10.203Z,47.34
2018-09-12T13:07:39.486Z,47.80
2018-09-12T13:10:07.803Z,47.26
2018-09-12T13:12:36.149Z,47.88
2018-09-12T13:15:04.667Z,47.87
2018-09-12T13:17:33.059Z,47.57
2018-09-12T13:20:01.434Z,47.23
2018-09-12T13:22:29.695Z,47.37
2018-09-12T13:24:58.058Z,46.98
2018-09-12T13:27:26.399Z,47.30
2018-09-12T13:29:54.662Z,46.97
2018-09-12T13:32:22.950Z,46.97
2018-09-12T13:34:51.291Z,47.96
2018-09-12T13:37:19.591Z,47.69
2018-09-12T13:39:47.909Z,46.97
2018-09-12T13:42:16.199Z,47.80
2018-09-12T13:44:44.519Z,46.92
2018-09-12T13:47:12.804Z,46.67
2018-09-12T13:49:41.117Z,46.64
2018-09-12T13:52:09.477Z,47.36
2018-09-12T13:54:37.764Z,47.31
2018-09-12T13:57:06.115Z,46.52
2018-09-12T13:59:34.378Z,46.37
2018-09-12T14:02:02.662Z,46.59
2018-09-12T14:04:30.983Z,47.13
2018-09-12T14:06:59.591Z,46.24
2018-09-12T14:09:27.951Z,46.88
2018-09-12T14:11:56.282Z,46.14
2018-09-12T14:14:24.590Z,46.85
2018-09-12T14:16:52.883Z,46.74
2018-09-12T14:19:21.317Z,45.81
2018-09-12T14:21:49.571Z,45.72
2018-09-12T14:24:17.868Z,46.42
2018-09-12T14:26:46.177Z,46.17
2018-09-12T14:29:14.542Z,46.07
2018-09-12T14:31:42.829Z,46.06
2018-09-12T14:34:11.187Z,45.34
2018-09-12T14:36:39.498Z,45.13
2018-09-12T14:39:08.546Z,45.27
2018-09-12T14:41:36.851Z,45.99
2018-09-12T14:44:05.187Z,45.98
2018-09-12T14:46:33.514Z,45.97
2018-09-12T14:49:01.793Z,45.91
2018-09-12T14:51:30.151Z,45.87
2018-09-12T14:53:58.401Z,46.00
2018-09-12T14:56:26.708Z,45.22
2018-09-12T14:58:54.994Z,46.21
2018-09-12T15:01:23.283Z,45.50
2018-09-12T15:03:51.558Z,46.24
2018-09-12T15:06:19.883Z,46.55
2018-09-12T15:08:48.156Z,45.99
2018-09-12T15:11:16.482Z,46.31
2018-09-12T15:13:44.779Z,46.12
2018-09-12T15:16:13.102Z,46.17
2018-09-12T15:18:41.413Z,46.78
2018-09-12T15:21:09.782Z,46.61
2018-09-12T15:23:38.166Z,46.46
2018-09-12T15:26:06.462Z,47.44
2018-09-12T15:28:41.318Z,46.72
2018-09-12T15:31:09.602Z,47.54
2018-09-12T15:33:37.988Z,47.74
2018-09-12T15:36:06.311Z,47.49
2018-09-12T15:38:34.638Z,47.02
2018-09-12T15:41:02.980Z,48.23
2018-09-12T15:43:31.263Z,48.10
2018-09-12T15:45:59.564Z,47.82
2018-09-12T15:48:27.863Z,47.52
2018-09-12T15:50:56.152Z,47.68
2018-09-12T15:53:24.458Z,48.38
2018-09-12T15:55:53.539Z,47.53
2018-09-12T15:58:21.955Z,48.22
2018-09-12T16:00:50.165Z,48.59
2018-09-12T16:03:18.479Z,48.84
2018-09-12T16:05:46.866Z,48.68
2018-09-12T16:08:15.151Z,48.71
2018-09-12T16:10:43.414Z,48.73
2018-09-12T16:13:11.794Z,48.38
2018-09-12T16:15:40.170Z,48.17
2018-09-12T16:18:08.501Z,48.92
2018-09-12T16:20:36.787Z,48.85
2018-09-12T16:23:05.301Z,48.99
2018-09-12T16:25:33.551Z,49.10
2018-09-12T16:28:01.886Z,49.09
2018-09-12T16:30:30.151Z,49.02
2018-09-12T16:32:58.490Z,48.33
2018-09-12T16:35:26.720Z,49.14
2018-09-12T16:37:55.750Z,48.22
2018-09-12T16:40:24.193Z,48.44
2018-09-12T16:42:52.462Z,48.77
2018-09-12T16:45:20.751Z,48.95
2018-09-12T16:47:49.051Z,49.58
2018-09-12T16:50:17.415Z,48.85
2018-09-12T16:52:45.699Z,49.59
2018-09-12T16:55:13.995Z,48.68
2018-09-12T16:57:42.275Z,49.35
2018-09-12T17:00:10.666Z,49.19
2018-09-12T17:02:38.950Z,48.60
2018-09-12T17:05:07.326Z,49.40
2018-09-12T17:07:35.690Z,48.68
2018-09-12T17:10:04.071Z,48.91
2018-09-12T17:12:32.435Z,49.47
2018-09-12T17:15:00.703Z,48.59
2018-09-12T17:17:29.590Z,48.47
2018-09-12T17:19:57.871Z,48.63
2018-09-12T17:22:26.146Z,48.61
2018-09-12T17:24:54.416Z,49.50
2018-09-12T17:27:22.718Z,48.96
2018-09-12T17:29:50.990Z,48.75
2018-09-12T17:32:19.360Z,48.85
2018-09-12T17:34:47.630Z,48.77
2018-09-12T17:37:15.947Z,49.51
2018-09-12T17:39:44.291Z,49.65
2018-09-12T17:42:12.614Z,49.46
2018-09-12T17:44:40.966Z,48.80
2018-09-12T17:47:09.287Z,49.46
2018-09-12T17:49:37.585Z,49.61
2018-09-12T17:52:06.122Z,49.04
2018-09-12T17:54:34.423Z,49.55
2018-09-12T17:57:03.410Z,49.29
2018-09-12T18:06:01.469Z,49.55
2018-09-12T18:08:29.750Z,50.07
2018-09-12T18:10:58.101Z,50.01
2018-09-12T18:13:26.386Z,49.28
2018-09-12T18:15:54.642Z,49.50
2018-09-12T18:18:22.955Z,49.62
2018-09-12T18:20:51.301Z,49.24
2018-09-12T18:23:19.615Z,49.34
2018-09-12T18:25:47.903Z,49.29
2018-09-12T18:28:16.187Z,50.04
2018-09-12T18:30:44.511Z,50.16
2018-09-12T18:33:12.954Z,50.18
2018-09-12T18:35:41.370Z,49.65
2018-09-12T18:38:09.674Z,50.32
2018-09-12T18:40:37.949Z,50.28
2018-09-12T18:43:06.472Z,50.54
2018-09-12T18:45:34.711Z,50.23
2018-09-12T18:48:03.111Z,50.46
2018-09-12T18:50:31.517Z,50.24
2018-09-12T18:53:00.291Z,50.41
2018-09-12T18:55:28.661Z,50.87
2018-09-12T18:57:57.106Z,49.98
2018-09-12T19:00:25.614Z,50.70
2018-09-12T19:02:54.003Z,50.03
2018-09-12T19:05:22.366Z,49.63
2018-09-12T19:08:21.247Z,50.50
2018-09-12T19:10:49.732Z,49.80
2018-09-12T19:13:18.127Z,50.61
2018-09-12T19:15:46.471Z,50.39
2018-09-12T19:18:14.947Z,50.60
2018-09-12T19:20:43.172Z,49.74
2018-09-12T19:23:11.572Z,49.89
2018-09-12T19:25:39.867Z,50.31
2018-09-12T19:28:08.174Z,50.54
2018-09-12T19:30:36.440Z,49.87
2018-09-12T19:33:04.895Z,50.71
2018-09-12T19:35:33.183Z,49.82
2018-09-12T19:38:01.582Z,50.97
2018-09-12T19:40:29.975Z,50.67
2018-09-12T19:42:58.334Z,49.93
2018-09-12T19:45:26.730Z,49.81
2018-09-12T19:47:55.111Z,50.34
2018-09-12T19:50:23.550Z,49.92
2018-09-12T19:52:51.861Z,50.55
2018-09-12T19:55:20.379Z,50.08
2018-09-12T19:57:48.779Z,50.64
2018-09-12T20:00:18.506Z,50.64
2018-09-12T20:02:46.927Z,50.90
2018-09-12T20:05:15.346Z,50.65
2018-09-12T20:07:43.650Z,50.46
2018-09-12T20:10:12.810Z,50.87
2018-09-12T20:12:41.452Z,50.83
2018-09-12T20:15:09.891Z,50.01
2018-09-12T20:17:38.190Z,50.44
2018-09-12T20:20:06.474Z,50.78
2018-09-12T20:22:34.766Z,50.69
2018-09-12T20:25:03.169Z,50.21
2018-09-12T20:27:31.454Z,50.00
2018-09-12T20:29:59.822Z,50.79
2018-09-12T20:32:28.117Z,50.30
2018-09-12T20:34:56.451Z,50.82
2018-09-12T20:37:24.811Z,50.16
2018-09-12T20:39:53.219Z,50.24
2018-09-12T20:42:21.532Z,50.05
2018-09-12T20:44:49.859Z,50.58
2018-09-12T20:47:18.186Z,50.11
2018-09-12T20:49:46.628Z,50.01
2018-09-12T20:52:15.015Z,50.31
2018-09-12T20:54:43.294Z,50.43
2018-09-12T20:57:11.594Z,49.88
2018-09-12T20:59:39.910Z,50.24
2018-09-12T21:02:08.298Z,50.52
2018-09-12T21:04:36.636Z,50.54
2018-09-12T21:07:05.072Z,50.79
2018-09-12T21:09:33.390Z,50.47
2018-09-12T21:12:01.714Z,50.23
2018-09-12T21:14:30.014Z,50.13
2018-09-12T21:16:58.335Z,50.84
2018-09-12T21:19:26.699Z,50.95
2018-09-12T21:21:55.102Z,50.09
2018-09-12T21:24:23.402Z,50.47
2018-09-12T21:26:51.697Z,50.73
2018-09-12T21:29:20.019Z,50.92
2018-09-12T21:31:48.297Z,50.98
2018-09-12T21:34:16.587Z,50.67
2018-09-12T21:36:44.881Z,50.22
2018-09-12T21:39:13.198Z,50.75
2018-09-12T21:41:41.531Z,50.56
2018-09-12T21:44:09.878Z,51.03
2018-09-12T21:46:38.163Z,50.60
2018-09-12T21:49:06.494Z,50.92
2018-09-12T21:51:34.782Z,50.27
2018-09-12T21:54:03.071Z,50.55
2018-09-12T21:56:31.378Z,50.90
2018-09-12T21:58:59.690Z,50.19
2018-09-12T22:01:27.974Z,51.06
2018-09-12T22:03:56.302Z,50.56
2018-09-12T22:06:24.706Z,50.78
2018-09-12T22:08:53.081Z,50.27
2018-09-12T22:11:21.529Z,50.38
2018-09-12T22:13:49.791Z,50.98
2018-09-12T22:16:18.083Z,50.40
2018-09-12T22:18:46.374Z,49.91
2018-09-12T22:21:14.706Z,50.39
2018-09-12T22:23:42.995Z,50.38
2018-09-12T22:26:11.283Z,51.11
2018-09-12T22:28:39.586Z,50.43
2018-09-12T22:31:07.994Z,51.19
2018-09-12T22:33:36.254Z,50.30
2018-09-12T22:36:04.563Z,51.06
2018-09-12T22:38:32.828Z,50.88
2018-09-12T22:41:01.126Z,50.32
2018-09-12T22:43:29.439Z,51.09
2018-09-12T22:45:57.747Z,50.70
2018-09-12T22:48:26.035Z,50.31
2018-09-12T22:50:55.134Z,50.41
2018-09-12T22:53:23.467Z,50.35
2018-09-12T22:55:51.749Z,50.70
2018-09-12T22:58:20.155Z,50.80
2018-09-12T23:00:54.677Z,50.47
2018-09-12T23:03:22.955Z,51.20
2018-09-12T23:05:51.230Z,50.50
2018-09-12T23:08:19.537Z,50.34
2018-09-12T23:10:48.584Z,51.14
2018-09-12T23:13:16.926Z,50.90
2018-09-12T23:15:45.248Z,50.56
2018-09-12T23:18:13.575Z,51.32
2018-09-12T23:20:41.877Z,50.54
2018-09-12T23:23:10.139Z,50.38
2018-09-12T23:25:38.522Z,50.45
2018-09-12T23:28:06.810Z,51.27
2018-09-12T23:30:35.077Z,50.54
2018-09-12T23:33:03.394Z,51.14
2018-09-12T23:35:31.715Z,50.74
2018-09-12T23:38:00.047Z,51.02
2018-09-12T23:40:29.018Z,51.04
2018-09-12T23:42:57.399Z,51.27
2018-09-12T23:45:25.658Z,50.41
2018-09-12T23:47:53.938Z,51.21
2018-09-12T23:50:22.202Z,50.91
2018-09-12T23:52:50.500Z,51.12
2018-09-12T23:55:18.794Z,50.48
2018-09-12T23:57:47.090Z,50.25
